createdAt,value
2023-01-28T18:44:41.584Z,16.50
2023-01-28T18:45:41.585Z,25.60
2023-01-28T18:46:41.448Z,31.20
2023-01-28T18:47:41.386Z,31.80
2023-01-28T18:48:41.330Z,33.70
2023-01-28T18:49:41.274Z,34.30
2023-01-28T18:50:41.219Z,34.80
2023-01-28T18:51:41.170Z,33.90
2023-01-28T18:52:41.108Z,34.40
2023-01-28T18:53:41.060Z,34.30
2023-01-28T18:54:41.002Z,32.80
2023-01-28T18:55:40.952Z,34.30
2023-01-28T18:56:40.899Z,34.50
2023-01-28T18:57:40.846Z,35.20
2023-01-28T18:58:40.793Z,34.40
2023-01-28T18:59:40.740Z,35.20
2023-01-28T19:00:40.708Z,33.70
2023-01-28T19:01:40.639Z,34.80
2023-01-28T19:02:40.584Z,33.20
2023-01-28T19:03:40.532Z,31.90
2023-01-28T19:04:40.479Z,33.00
2023-01-28T19:05:40.439Z,33.20
2023-01-28T19:06:40.377Z,32.50
2023-01-28T19:07:40.335Z,33.10
2023-01-28T19:08:40.282Z,31.70
2023-01-28T19:09:40.226Z,30.00
2023-01-28T19:10:40.176Z,32.20
2023-01-28T19:11:40.123Z,31.50
2023-01-28T19:12:40.077Z,30.80
2023-01-28T19:13:40.024Z,30.00
2023-01-28T19:14:39.970Z,30.20
2023-01-28T19:15:39.921Z,31.10
2023-01-28T19:16:39.949Z,31.00
2023-01-28T19:17:39.842Z,31.40
2023-01-28T19:18:39.769Z,29.70
2023-01-28T19:20:39.670Z,30.50
2023-01-28T19:21:39.647Z,31.90
2023-01-28T19:22:42.000Z,31.70
2023-01-28T19:23:49.599Z,32.50
2023-01-28T19:24:39.467Z,32.40
2023-01-28T19:25:39.430Z,34.50
2023-01-28T19:26:39.376Z,33.10
2023-01-28T19:27:39.334Z,33.10
2023-01-28T19:28:39.271Z,34.50
2023-01-28T19:29:39.215Z,36.20
2023-01-28T19:30:39.246Z,34.00
2023-01-28T19:31:39.309Z,34.10
2023-01-28T19:32:39.088Z,32.00
2023-01-28T19:33:39.014Z,32.20
2023-01-28T19:34:38.964Z,32.10
2023-01-28T19:35:38.921Z,31.50
2023-01-28T19:36:38.865Z,32.20
2023-01-28T19:37:38.818Z,30.30
2023-01-28T19:38:38.764Z,30.90
2023-01-28T19:39:38.716Z,33.60
2023-01-28T19:40:38.668Z,32.40
2023-01-28T19:41:38.632Z,33.00
2023-01-28T19:42:38.581Z,34.80
2023-01-28T19:43:38.512Z,35.00
2023-01-28T19:44:38.465Z,33.60
2023-01-28T19:45:38.421Z,33.00
2023-01-28T19:46:38.371Z,33.90
2023-01-28T19:47:38.316Z,34.20
2023-01-28T19:48:38.285Z,34.00
2023-01-28T19:49:38.219Z,33.70
2023-01-28T19:50:38.168Z,33.20
2023-01-28T19:51:38.121Z,33.20
2023-01-28T19:52:38.064Z,34.30
2023-01-28T19:53:38.016Z,34.50
2023-01-28T19:54:37.992Z,32.70
2023-01-28T19:55:37.916Z,33.10
2023-01-28T19:56:37.863Z,34.30
2023-01-28T19:57:37.814Z,35.20
2023-01-28T19:58:37.767Z,34.30
2023-01-28T19:59:37.725Z,34.80
2023-01-28T20:00:37.681Z,36.40
2023-01-28T20:01:37.735Z,36.50
2023-01-28T20:02:37.588Z,36.80
2023-01-28T20:03:37.513Z,35.90
2023-01-28T20:04:40.974Z,38.30
2023-01-28T20:05:37.422Z,36.70
2023-01-28T20:06:37.423Z,38.70
2023-01-28T20:07:37.319Z,36.30
2023-01-28T20:08:37.269Z,35.80
2023-01-28T20:09:37.219Z,34.50
2023-01-28T20:10:37.183Z,35.30
2023-01-28T20:11:37.120Z,37.80
2023-01-28T20:12:37.069Z,38.20
2023-01-28T20:13:37.018Z,42.10
2023-01-28T20:14:36.965Z,45.00
2023-01-28T20:15:36.947Z,44.80
2023-01-28T20:16:36.873Z,45.40
2023-01-28T20:17:36.923Z,44.90
2023-01-28T20:18:36.763Z,47.50
2023-01-28T20:19:36.713Z,47.30
2023-01-28T20:20:36.688Z,46.30
2023-01-28T20:21:36.615Z,44.30
2023-01-28T20:22:36.566Z,43.60
2023-01-28T20:23:36.546Z,46.40
2023-01-28T20:24:36.507Z,49.20
2023-01-28T20:25:36.419Z,49.50
2023-01-28T20:26:36.364Z,46.70
2023-01-28T20:27:36.313Z,47.80
2023-01-28T20:28:36.265Z,46.40
2023-01-28T20:29:36.216Z,45.80
2023-01-28T20:30:36.224Z,44.00
2023-01-28T20:31:36.271Z,43.40
2023-01-28T20:32:36.147Z,44.20
2023-01-28T20:33:36.020Z,47.90
2023-01-28T20:34:35.974Z,50.20
2023-01-28T20:35:35.915Z,52.90
2023-01-28T20:36:35.894Z,54.20
2023-01-28T20:37:35.818Z,52.30
2023-01-28T20:38:35.767Z,53.70
2023-01-28T20:39:35.712Z,62.40
2023-01-28T20:40:35.681Z,66.20
2023-01-28T20:41:35.620Z,68.50
2023-01-28T20:42:35.572Z,69.50
2023-01-28T20:43:35.515Z,70.50
2023-01-28T20:44:35.468Z,69.00
2023-01-28T20:45:35.411Z,72.70
2023-01-28T20:46:35.496Z,76.00
2023-01-28T20:47:35.316Z,76.40
2023-01-28T20:48:35.263Z,70.50
2023-01-28T20:49:35.223Z,69.10
2023-01-28T20:50:35.171Z,68.80
2023-01-28T20:51:35.887Z,62.30
2023-01-28T20:52:35.080Z,57.50
2023-01-28T20:53:35.010Z,52.70
2023-01-28T20:54:34.968Z,49.80
2023-01-28T20:55:34.926Z,48.50
2023-01-28T20:56:34.872Z,48.20
2023-01-28T20:57:34.812Z,48.10
2023-01-28T20:58:34.762Z,47.30
2023-01-28T20:59:34.710Z,47.90
2023-01-28T21:00:34.663Z,46.10
2023-01-28T21:01:34.865Z,46.90
2023-01-28T21:02:34.589Z,46.00
2023-01-28T21:03:34.511Z,46.40
2023-01-28T21:04:34.471Z,45.80
2023-01-28T21:05:34.411Z,45.10
2023-01-28T21:06:34.358Z,44.00
2023-01-28T21:07:34.331Z,43.80
2023-01-28T21:08:34.278Z,41.20
2023-01-28T21:09:34.207Z,42.00
2023-01-28T21:10:34.167Z,42.50
2023-01-28T21:11:34.106Z,40.40
2023-01-28T21:12:34.063Z,39.80
2023-01-28T21:13:34.010Z,40.20
2023-01-28T21:14:33.961Z,41.50
2023-01-28T21:15:33.905Z,42.30
2023-01-28T21:16:33.866Z,41.50
2023-01-28T21:17:33.807Z,41.40
2023-01-28T21:18:33.757Z,40.90
2023-01-28T21:19:33.708Z,38.00
2023-01-28T21:20:33.685Z,40.30
2023-01-28T21:21:33.610Z,39.30
2023-01-28T21:22:33.555Z,39.90
2023-01-28T21:23:33.506Z,40.10
2023-01-28T21:24:33.530Z,38.80
2023-01-28T21:25:33.409Z,39.50
2023-01-28T21:26:33.356Z,38.60
2023-01-28T21:27:33.319Z,40.10
2023-01-28T21:28:33.258Z,38.90
2023-01-28T21:29:33.204Z,38.60
2023-01-28T21:30:33.203Z,38.70
2023-01-28T21:31:33.109Z,38.60
2023-01-28T21:32:33.091Z,40.40
2023-01-28T21:33:33.007Z,38.40
2023-01-28T21:34:32.950Z,38.50
2023-01-28T21:35:32.905Z,40.40
2023-01-28T21:36:32.854Z,38.80
2023-01-28T21:37:32.802Z,39.60
2023-01-28T21:38:32.752Z,37.80
2023-01-28T21:39:32.702Z,38.60
2023-01-28T21:40:32.673Z,39.30
2023-01-28T21:41:32.601Z,40.20
2023-01-28T21:42:32.556Z,38.80
2023-01-28T21:43:32.497Z,40.90
2023-01-28T21:44:32.447Z,38.40
2023-01-28T21:45:32.399Z,38.50
2023-01-28T21:46:32.484Z,38.60
2023-01-28T21:47:32.299Z,37.80
2023-01-28T21:48:32.252Z,37.80
2023-01-28T21:49:32.198Z,38.00
2023-01-28T21:50:32.145Z,38.40
2023-01-28T21:51:32.096Z,37.20
2023-01-28T21:52:32.048Z,37.00
2023-01-28T21:53:32.002Z,37.40
2023-01-28T21:54:31.944Z,36.20
2023-01-28T21:55:31.893Z,37.10
2023-01-28T21:56:31.864Z,36.30
2023-01-28T21:57:31.794Z,36.20
2023-01-28T21:58:31.749Z,35.70
2023-01-28T21:59:31.692Z,36.40
2023-01-28T22:00:31.645Z,37.30
2023-01-28T22:01:31.600Z,36.00
2023-01-28T22:02:31.579Z,36.50
2023-01-28T22:03:31.497Z,36.20
2023-01-28T22:04:31.453Z,38.40
2023-01-28T22:05:31.392Z,36.00
2023-01-28T22:06:31.339Z,36.40
2023-01-28T22:07:31.285Z,36.70
2023-01-28T22:08:31.252Z,36.00
2023-01-28T22:10:31.137Z,36.40
2023-01-28T22:11:31.089Z,35.10
2023-01-28T22:12:31.078Z,35.80
2023-01-28T22:13:30.985Z,36.80
2023-01-28T22:14:31.135Z,36.50
2023-01-28T22:15:30.885Z,36.20
2023-01-28T22:16:30.835Z,35.40
2023-01-28T22:17:30.795Z,36.50
2023-01-28T22:18:30.738Z,36.00
2023-01-28T22:19:30.687Z,35.70
2023-01-28T22:20:31.606Z,36.40
2023-01-28T22:21:30.584Z,36.60
2023-01-28T22:22:30.529Z,36.90
2023-01-28T22:23:30.484Z,36.40
2023-01-28T22:24:30.647Z,37.60
2023-01-28T22:25:30.385Z,36.90
2023-01-28T22:26:30.337Z,37.20
2023-01-28T22:27:30.281Z,38.10
2023-01-28T22:28:30.249Z,37.30
2023-01-28T22:29:30.184Z,36.60
2023-01-28T22:30:30.157Z,36.00
2023-01-28T22:31:30.211Z,36.50
2023-01-28T22:32:30.027Z,33.50
2023-01-28T22:33:29.980Z,34.70
2023-01-28T22:34:29.939Z,34.50
2023-01-28T22:35:29.875Z,34.60
2023-01-28T22:36:29.826Z,35.00
2023-01-28T22:37:29.773Z,34.30
2023-01-28T22:38:29.731Z,33.80
2023-01-28T22:39:29.677Z,35.00
2023-01-28T22:40:29.628Z,34.20
2023-01-28T22:41:29.571Z,35.10
2023-01-28T22:42:29.522Z,34.80
2023-01-28T22:43:29.471Z,34.70
2023-01-28T22:44:29.441Z,35.40
2023-01-28T22:45:29.432Z,34.10
2023-01-28T22:46:29.443Z,33.50
2023-01-28T22:47:29.268Z,34.50
2023-01-28T22:48:29.216Z,33.90
2023-01-28T22:49:29.169Z,33.80
2023-01-28T22:50:29.118Z,34.80
2023-01-28T22:51:29.066Z,34.10
2023-01-28T22:52:29.019Z,33.80
2023-01-28T22:53:28.967Z,32.60
2023-01-28T22:54:28.912Z,33.70
2023-01-28T22:55:28.864Z,32.90
2023-01-28T22:56:28.810Z,34.80
2023-01-28T22:57:28.759Z,33.80
2023-01-28T22:58:31.296Z,32.70
2023-01-28T22:59:28.659Z,34.80
2023-01-28T23:00:28.633Z,33.20
2023-01-28T23:01:28.626Z,34.40
2023-01-28T23:02:28.556Z,34.40
2023-01-28T23:03:28.455Z,35.00
2023-01-28T23:04:28.410Z,33.60
2023-01-28T23:05:28.364Z,34.50
2023-01-28T23:06:28.341Z,33.60
2023-01-28T23:07:28.258Z,35.80
2023-01-28T23:08:28.210Z,36.40
2023-01-28T23:09:28.151Z,36.70
2023-01-28T23:10:28.115Z,35.80
2023-01-28T23:11:28.652Z,35.50
2023-01-28T23:12:28.009Z,35.70
2023-01-28T23:13:27.970Z,38.40
2023-01-28T23:14:27.908Z,37.60
2023-01-28T23:15:27.873Z,35.30
2023-01-28T23:16:27.821Z,36.80
2023-01-28T23:17:27.831Z,36.60
2023-01-28T23:18:27.696Z,38.10
2023-01-28T23:19:27.658Z,38.80
2023-01-28T23:20:27.597Z,38.00
2023-01-28T23:21:27.548Z,37.80
2023-01-28T23:22:27.497Z,36.50
2023-01-28T23:23:27.443Z,34.90
2023-01-28T23:24:27.419Z,35.80
2023-01-28T23:26:27.297Z,35.00
2023-01-28T23:27:27.247Z,33.70
2023-01-28T23:28:27.190Z,34.90
2023-01-28T23:29:27.146Z,34.60
2023-01-28T23:30:27.094Z,36.10
2023-01-28T23:31:27.149Z,35.90
2023-01-28T23:32:27.005Z,36.50
2023-01-28T23:33:26.941Z,36.40
2023-01-28T23:34:26.902Z,37.10
2023-01-28T23:35:26.848Z,35.90
2023-01-28T23:36:26.801Z,36.70
2023-01-28T23:37:26.737Z,37.90
2023-01-28T23:38:26.687Z,36.90
2023-01-28T23:39:26.633Z,36.90
2023-01-28T23:40:26.583Z,36.90
2023-01-28T23:41:26.533Z,35.50
2023-01-28T23:42:26.489Z,35.90
2023-01-28T23:43:26.429Z,35.10
2023-01-28T23:44:26.380Z,36.40
2023-01-28T23:45:26.330Z,37.10
2023-01-28T23:46:38.676Z,36.80
2023-01-28T23:47:26.238Z,37.10
2023-01-28T23:48:26.194Z,35.70
2023-01-28T23:49:26.135Z,37.10
2023-01-28T23:50:26.083Z,35.70
2023-01-28T23:51:26.025Z,35.70
2023-01-28T23:52:25.981Z,35.50
2023-01-28T23:53:25.927Z,36.90
2023-01-28T23:54:25.873Z,35.20
2023-01-28T23:55:25.826Z,32.90
2023-01-28T23:56:25.775Z,33.50
2023-01-28T23:57:25.728Z,34.50
2023-01-28T23:58:42.271Z,33.50
2023-01-28T23:59:25.619Z,33.40
